Time;durP1;ratioP1;P1;durP2;ratioP2;P2;SDS_P1;SDS_P2;PMS_P1;PMS_P2;Temp;Humidity;BMP_temperature;BMP_pressure;BME280_temperature;BME280_humidity;BME280_pressure;Samples;Min_cycle;Max_cycle;Signal;HPM_P1;HPM_P2
2023/04/14 00:02:14;;;;;;;0.40;0.40;;;6.50;99.90;;;;;;5097008;28;20558;-85
2023/04/14 00:04:42;;;;;;;0.80;0.50;;;6.50;99.90;;;;;;5096746;28;20452;-85
2023/04/14 00:07:09;;;;;;;0.40;0.40;;;6.60;99.90;;;;;;5096643;28;20440;-85
2023/04/14 00:09:36;;;;;;;0.70;0.60;;;6.50;99.90;;;;;;5096566;28;20460;-85
2023/04/14 00:12:02;;;;;;;5.37;1.13;;;6.50;99.90;;;;;;5096139;28;20452;-84
2023/04/14 00:14:29;;;;;;;0.37;0.37;;;6.50;99.90;;;;;;5096435;28;20472;-85
2023/04/14 00:16:56;;;;;;;0.50;0.40;;;6.50;99.90;;;;;;5096261;28;20444;-85
2023/04/14 00:19:22;;;;;;;0.80;0.40;;;6.50;99.90;;;;;;5096323;28;20444;-85
2023/04/14 00:21:51;;;;;;;0.87;0.83;;;6.50;99.90;;;;;;5096210;28;20445;-85
2023/04/14 00:24:18;;;;;;;3.13;0.50;;;6.50;99.90;;;;;;5096320;28;20527;-85
2023/04/14 00:26:44;;;;;;;1.07;0.73;;;6.50;99.90;;;;;;5096257;28;20441;-85
2023/04/14 00:29:11;;;;;;;1.80;0.50;;;6.50;99.90;;;;;;5096018;28;20799;-85
2023/04/14 00:31:38;;;;;;;0.93;0.40;;;6.50;99.90;;;;;;5096112;28;20464;-85
2023/04/14 00:34:04;;;;;;;0.30;0.30;;;6.40;99.90;;;;;;5096050;28;20481;-85
2023/04/14 00:36:32;;;;;;;0.40;0.40;;;6.40;99.90;;;;;;5096186;28;20494;-85
2023/04/14 00:39:00;;;;;;;0.63;0.40;;;6.30;99.90;;;;;;5095999;28;20472;-85
2023/04/14 00:41:26;;;;;;;0.50;0.50;;;6.20;99.90;;;;;;5095291;28;20456;-85
2023/04/14 00:43:53;;;;;;;2.43;0.40;;;6.20;99.90;;;;;;5095937;28;20440;-85
2023/04/14 00:46:22;;;;;;;0.37;0.30;;;6.10;99.90;;;;;;5095669;28;20468;-85
2023/04/14 00:48:48;;;;;;;0.40;0.40;;;6.10;99.90;;;;;;5095930;28;20424;-85
2023/04/14 00:51:15;;;;;;;0.50;0.30;;;6.00;99.90;;;;;;5095692;28;20471;-84
2023/04/14 00:53:42;;;;;;;0.40;0.30;;;6.00;99.90;;;;;;5095673;28;20516;-85
2023/04/14 00:56:11;;;;;;;0.40;0.30;;;5.90;99.90;;;;;;5095697;28;20459;-86
2023/04/14 00:58:38;;;;;;;2.87;0.43;;;5.90;99.90;;;;;;5095611;28;20449;-85
2023/04/14 01:01:05;;;;;;;2.37;0.60;;;5.90;99.90;;;;;;5095451;28;20502;-85
2023/04/14 01:03:32;;;;;;;0.83;0.40;;;5.90;99.90;;;;;;5095512;28;20535;-85
2023/04/14 01:05:59;;;;;;;0.40;0.40;;;5.90;99.90;;;;;;5095480;28;20857;-85
2023/04/14 01:08:26;;;;;;;0.30;0.30;;;5.80;99.90;;;;;;5095399;28;20445;-84
2023/04/14 01:11:06;;;;;;;0.40;0.30;;;5.80;99.90;;;;;;5095400;28;20810;-85
2023/04/14 01:13:46;;;;;;;0.40;0.30;;;5.80;99.90;;;;;;5095447;28;20816;-85
2023/04/14 01:16:18;;;;;;;0.33;0.30;;;5.80;99.90;;;;;;5095360;28;20425;-85
2023/04/14 01:18:51;;;;;;;2.97;0.50;;;5.70;99.90;;;;;;5095211;28;20428;-84
2023/04/14 01:21:25;;;;;;;1.17;0.70;;;5.70;99.90;;;;;;5095091;28;20480;-85
2023/04/14 01:24:05;;;;;;;0.30;0.30;;;5.70;99.90;;;;;;5095373;28;20469;-85
2023/04/14 01:26:34;;;;;;;0.40;0.30;;;5.70;99.90;;;;;;5095223;28;20970;-85
2023/04/14 01:29:33;;;;;;;0.87;0.50;;;5.70;99.90;;;;;;5094810;28;20944;-85
2023/04/14 01:32:04;;;;;;;0.30;0.30;;;5.70;99.90;;;;;;5095097;28;20433;-85
2023/04/14 01:34:35;;;;;;;0.30;0.20;;;5.60;99.90;;;;;;5094728;28;20905;-85
2023/04/14 01:37:07;;;;;;;1.37;0.40;;;5.70;99.90;;;;;;5094908;28;20412;-84
2023/04/14 01:39:37;;;;;;;3.63;0.63;;;5.60;99.90;;;;;;5094422;28;20432;-85
2023/04/14 01:42:07;;;;;;;0.30;0.30;;;5.60;99.90;;;;;;5094900;28;20409;-85
2023/04/14 01:44:35;;;;;;;1.00;0.43;;;5.60;99.90;;;;;;5098753;28;20500;-85
2023/04/14 01:47:05;;;;;;;0.30;0.30;;;5.50;99.90;;;;;;5094187;28;21013;-84
2023/04/14 01:49:33;;;;;;;0.37;0.30;;;5.50;99.90;;;;;;5094648;28;20440;-85
2023/04/14 01:52:01;;;;;;;0.57;0.53;;;5.40;99.90;;;;;;5094250;28;20456;-85
2023/04/14 01:54:31;;;;;;;0.30;0.30;;;5.40;99.90;;;;;;5095235;28;20441;-85
2023/04/14 01:57:00;;;;;;;0.40;0.40;;;5.40;99.90;;;;;;5094502;28;20453;-85
2023/04/14 01:59:30;;;;;;;0.40;0.37;;;5.30;99.90;;;;;;5094498;28;20455;-85
2023/04/14 02:01:59;;;;;;;0.40;0.40;;;5.30;99.90;;;;;;5094877;28;20453;-85
2023/04/14 02:04:29;;;;;;;0.40;0.40;;;5.20;99.90;;;;;;5093961;28;20481;-85
2023/04/14 02:06:58;;;;;;;0.67;0.67;;;5.20;99.90;;;;;;5094433;28;20478;-85
2023/04/14 02:09:26;;;;;;;0.50;0.50;;;5.20;99.90;;;;;;5094133;28;20449;-85
2023/04/14 02:11:55;;;;;;;0.30;0.30;;;5.20;99.90;;;;;;5094374;28;20448;-85
2023/04/14 02:14:23;;;;;;;1.23;0.50;;;5.20;99.90;;;;;;5094290;28;20797;-85
2023/04/14 02:16:52;;;;;;;0.30;0.30;;;5.20;99.90;;;;;;5094089;28;20436;-85
2023/04/14 02:19:20;;;;;;;0.37;0.37;;;5.10;99.90;;;;;;5094152;28;20445;-85
2023/04/14 02:21:50;;;;;;;1.50;0.30;;;5.10;99.90;;;;;;5094122;28;20456;-85
2023/04/14 02:24:17;;;;;;;0.40;0.40;;;5.10;99.90;;;;;;5093659;28;20872;-85
2023/04/14 02:26:51;;;;;;;3.70;0.67;;;5.10;99.90;;;;;;5094260;28;20452;-85
2023/04/14 02:29:21;;;;;;;0.30;0.30;;;5.10;99.90;;;;;;5094070;28;20440;-84
2023/04/14 02:31:54;;;;;;;0.50;0.30;;;5.10;99.90;;;;;;5094046;28;20803;-85
2023/04/14 02:34:26;;;;;;;1.80;0.97;;;5.00;99.90;;;;;;5093661;28;20433;-85
2023/04/14 02:36:57;;;;;;;0.30;0.30;;;5.00;99.90;;;;;;5093642;28;20429;-85
2023/04/14 02:39:30;;;;;;;0.30;0.30;;;4.90;99.90;;;;;;5093794;28;20924;-85
2023/04/14 02:42:01;;;;;;;0.40;0.30;;;4.90;99.90;;;;;;5093923;28;20464;-85
2023/04/14 02:44:32;;;;;;;1.70;0.60;;;4.90;99.90;;;;;;5093820;28;20534;-85
2023/04/14 02:47:05;;;;;;;0.40;0.40;;;4.80;99.90;;;;;;5093551;28;20825;-85
2023/04/14 02:49:34;;;;;;;0.33;0.33;;;4.80;99.90;;;;;;5093654;28;20433;-84
2023/04/14 02:52:03;;;;;;;0.30;0.30;;;4.80;99.90;;;;;;5093663;28;20471;-85
2023/04/14 02:54:31;;;;;;;1.07;0.40;;;4.80;99.90;;;;;;5093729;28;20823;-85
2023/04/14 02:56:58;;;;;;;0.40;0.40;;;4.70;99.90;;;;;;5093552;28;20865;-85
2023/04/14 02:59:27;;;;;;;0.37;0.27;;;4.70;99.90;;;;;;5093350;28;20825;-85
2023/04/14 03:01:54;;;;;;;0.30;0.30;;;4.70;99.90;;;;;;5094302;28;20445;-85
2023/04/14 03:04:22;;;;;;;0.30;0.30;;;4.70;99.90;;;;;;5095662;28;20511;-85
2023/04/14 03:06:49;;;;;;;0.30;0.30;;;4.60;99.90;;;;;;5097873;28;20444;-85
2023/04/14 03:09:20;;;;;;;0.50;0.50;;;4.60;99.90;;;;;;5097592;28;20445;-85
2023/04/14 03:11:47;;;;;;;0.40;0.30;;;4.50;99.90;;;;;;5097792;28;20437;-85
2023/04/14 03:14:14;;;;;;;0.40;0.40;;;4.50;99.90;;;;;;5097841;28;20514;-85
2023/04/14 03:16:42;;;;;;;1.87;0.77;;;4.50;99.90;;;;;;5097809;28;20448;-85
2023/04/14 03:19:11;;;;;;;0.40;0.33;;;4.40;99.90;;;;;;5097597;28;20448;-85
2023/04/14 03:21:38;;;;;;;0.67;0.67;;;4.40;99.90;;;;;;5097344;28;20460;-85
2023/04/14 03:24:06;;;;;;;0.37;0.27;;;4.40;99.90;;;;;;5097486;28;20492;-85
2023/04/14 03:26:36;;;;;;;0.30;0.30;;;4.40;99.90;;;;;;5097177;28;20455;-85
2023/04/14 03:29:06;;;;;;;0.30;0.20;;;4.30;99.90;;;;;;5097634;28;20441;-85
2023/04/14 03:31:35;;;;;;;0.30;0.30;;;4.30;99.90;;;;;;5097355;28;20464;-85
2023/04/14 03:34:06;;;;;;;0.40;0.30;;;4.30;99.90;;;;;;5097420;28;20449;-84
2023/04/14 03:36:34;;;;;;;0.60;0.60;;;4.30;99.90;;;;;;5097321;28;20437;-85
2023/04/14 03:39:04;;;;;;;0.40;0.30;;;4.30;99.90;;;;;;5097612;28;20905;-85
2023/04/14 03:41:34;;;;;;;0.30;0.30;;;4.30;99.90;;;;;;5096825;28;20995;-85
2023/04/14 03:44:04;;;;;;;0.30;0.30;;;4.30;99.90;;;;;;5097743;28;20587;-85
2023/04/14 03:46:31;;;;;;;0.40;0.30;;;4.30;99.90;;;;;;5096937;28;20938;-85
2023/04/14 03:49:00;;;;;;;1.53;1.07;;;4.30;99.90;;;;;;5097018;28;20436;-85
2023/04/14 03:51:29;;;;;;;0.40;0.30;;;4.30;99.90;;;;;;5096675;28;20503;-85
2023/04/14 03:53:57;;;;;;;0.40;0.40;;;4.30;99.90;;;;;;5096861;28;20448;-85
2023/04/14 03:56:25;;;;;;;5.67;0.50;;;4.20;99.90;;;;;;5096890;28;20453;-85
2023/04/14 03:58:55;;;;;;;4.87;0.60;;;4.20;99.90;;;;;;5096423;28;20943;-84
2023/04/14 04:01:26;;;;;;;0.97;0.97;;;4.10;99.90;;;;;;5096482;28;20491;-83
2023/04/14 04:03:54;;;;;;;1.83;0.30;;;4.10;99.90;;;;;;5096220;28;20963;-83
2023/04/14 04:06:21;;;;;;;0.30;0.30;;;4.00;99.90;;;;;;5096552;28;20445;-83
2023/04/14 04:08:49;;;;;;;0.63;0.63;;;4.00;99.90;;;;;;5096169;28;20978;-83
2023/04/14 04:11:19;;;;;;;0.40;0.30;;;4.00;99.90;;;;;;5095993;28;20521;-82
2023/04/14 04:13:48;;;;;;;0.33;0.30;;;3.90;99.90;;;;;;5096389;28;20431;-83
2023/04/14 04:16:15;;;;;;;0.30;0.30;;;3.90;99.90;;;;;;5095569;28;20548;-83
2023/04/14 04:18:45;;;;;;;0.30;0.20;;;3.90;99.90;;;;;;5096307;28;20447;-83
2023/04/14 04:21:16;;;;;;;1.20;0.73;;;3.90;99.90;;;;;;5096184;28;20479;-83
2023/04/14 04:23:48;;;;;;;0.30;0.30;;;3.90;99.90;;;;;;5096747;28;20469;-83
2023/04/14 04:26:15;;;;;;;0.40;0.40;;;3.90;99.90;;;;;;5095884;28;20905;-83
2023/04/14 04:28:42;;;;;;;0.30;0.30;;;3.90;99.90;;;;;;5096165;28;20864;-83
2023/04/14 04:31:10;;;;;;;0.40;0.30;;;3.90;99.90;;;;;;5095700;28;20518;-83
2023/04/14 04:33:38;;;;;;;0.30;0.30;;;3.80;99.90;;;;;;5095983;28;20479;-83
2023/04/14 04:36:07;;;;;;;0.63;0.63;;;3.80;99.90;;;;;;5095806;28;20463;-83
2023/04/14 04:38:33;;;;;;;0.30;0.30;;;3.80;99.90;;;;;;5095894;28;20452;-83
2023/04/14 04:41:00;;;;;;;0.70;0.40;;;3.80;99.90;;;;;;5095804;28;20465;-83
2023/04/14 04:43:27;;;;;;;0.40;0.30;;;3.80;99.90;;;;;;5095715;28;20449;-83
2023/04/14 04:46:12;;;;;;;0.50;0.50;;;3.70;99.90;;;;;;5095739;28;20444;-82
2023/04/14 04:48:39;;;;;;;0.30;0.20;;;3.70;99.90;;;;;;5095740;28;20440;-83
2023/04/14 04:51:08;;;;;;;0.30;0.30;;;3.70;99.90;;;;;;5095581;28;20467;-83
2023/04/14 04:53:35;;;;;;;0.40;0.40;;;3.70;99.90;;;;;;5095577;28;20441;-82
2023/04/14 04:56:01;;;;;;;1.03;0.60;;;3.70;99.90;;;;;;5095528;28;20453;-82
2023/04/14 04:58:28;;;;;;;0.40;0.40;;;3.70;99.90;;;;;;5095414;28;20448;-82
2023/04/14 05:00:55;;;;;;;0.30;0.30;;;3.70;99.90;;;;;;5095122;28;20995;-82
2023/04/14 05:03:21;;;;;;;0.30;0.30;;;3.70;99.90;;;;;;5095322;28;20452;-82
2023/04/14 05:05:48;;;;;;;0.40;0.30;;;3.70;99.90;;;;;;5095360;28;20440;-82
2023/04/14 05:08:16;;;;;;;0.30;0.30;;;3.70;99.90;;;;;;5095009;28;20936;-82
2023/04/14 05:10:44;;;;;;;0.40;0.33;;;3.70;99.90;;;;;;5095172;28;20468;-82
2023/04/14 05:13:10;;;;;;;0.30;0.30;;;3.70;99.90;;;;;;5095265;28;20456;-82
2023/04/14 05:15:37;;;;;;;0.87;0.40;;;3.70;99.90;;;;;;5095183;28;20437;-82
2023/04/14 05:18:04;;;;;;;0.37;0.37;;;3.70;99.90;;;;;;5094775;28;20445;-82
2023/04/14 05:20:30;;;;;;;0.40;0.40;;;3.80;99.90;;;;;;5094701;28;20503;-82
2023/04/14 05:22:57;;;;;;;0.40;0.30;;;3.80;99.90;;;;;;5095082;28;20793;-82
2023/04/14 05:25:25;;;;;;;0.53;0.40;;;3.90;99.90;;;;;;5094897;28;20850;-82
2023/04/14 05:27:52;;;;;;;2.93;0.83;;;4.00;99.90;;;;;;5093891;28;20494;-82
2023/04/14 05:30:19;;;;;;;3.70;0.57;;;4.00;99.90;;;;;;5094817;28;20460;-82
2023/04/14 05:32:45;;;;;;;0.30;0.30;;;4.10;99.90;;;;;;5094812;28;20448;-82
2023/04/14 05:35:12;;;;;;;0.50;0.30;;;4.10;99.90;;;;;;5094796;28;20455;-82
2023/04/14 05:37:39;;;;;;;0.57;0.30;;;4.20;99.90;;;;;;5094714;28;20444;-83
2023/04/14 05:40:07;;;;;;;0.30;0.27;;;4.30;99.90;;;;;;5094601;28;20473;-82
2023/04/14 05:42:35;;;;;;;0.30;0.30;;;4.40;99.90;;;;;;5094645;28;20444;-82
2023/04/14 05:45:02;;;;;;;0.63;0.40;;;4.60;99.90;;;;;;5094595;28;20477;-82
2023/04/14 05:47:29;;;;;;;0.67;0.40;;;4.70;99.90;;;;;;5094176;28;20484;-82
2023/04/14 05:49:57;;;;;;;0.30;0.30;;;4.80;99.90;;;;;;5094463;28;20469;-82
2023/04/14 05:52:23;;;;;;;0.50;0.30;;;5.00;99.90;;;;;;5094453;28;20535;-82
2023/04/14 05:54:50;;;;;;;0.30;0.20;;;5.20;99.90;;;;;;5094066;28;20951;-82
2023/04/14 05:57:17;;;;;;;0.43;0.43;;;5.40;99.90;;;;;;5094366;28;20860;-82
2023/04/14 05:59:45;;;;;;;0.40;0.40;;;5.50;99.90;;;;;;5094332;28;20468;-82
2023/04/14 06:02:11;;;;;;;0.50;0.40;;;5.70;99.90;;;;;;5094294;28;20444;-82
2023/04/14 06:04:38;;;;;;;0.60;0.40;;;5.80;99.90;;;;;;5094138;28;20506;-82
2023/04/14 06:07:05;;;;;;;0.70;0.57;;;6.00;99.90;;;;;;5094129;28;20561;-82
2023/04/14 06:09:31;;;;;;;0.40;0.30;;;6.00;99.90;;;;;;5093760;28;20494;-82
2023/04/14 06:11:58;;;;;;;0.30;0.30;;;6.10;99.90;;;;;;5094090;28;20455;-82
2023/04/14 06:14:25;;;;;;;1.60;0.40;;;6.10;99.90;;;;;;5094072;28;20582;-82
2023/04/14 06:16:54;;;;;;;0.40;0.30;;;6.20;99.90;;;;;;5099251;28;20834;-82
2023/04/14 06:19:21;;;;;;;1.43;0.33;;;6.20;99.90;;;;;;5093884;28;20455;-82
2023/04/14 06:21:48;;;;;;;0.37;0.33;;;6.20;99.90;;;;;;5093962;28;20444;-82
2023/04/14 06:24:15;;;;;;;1.13;0.60;;;6.30;99.90;;;;;;5093836;28;20503;-82
2023/04/14 06:26:42;;;;;;;0.60;0.60;;;6.60;99.90;;;;;;5093845;28;20471;-83
2023/04/14 06:29:08;;;;;;;0.83;0.70;;;7.20;99.90;;;;;;5093516;28;20940;-82
2023/04/14 06:31:35;;;;;;;0.87;0.57;;;7.90;99.90;;;;;;5093489;28;20511;-82
2023/04/14 06:34:03;;;;;;;0.40;0.40;;;8.60;99.90;;;;;;5093764;28;20448;-82
2023/04/14 06:36:30;;;;;;;0.40;0.40;;;9.00;99.90;;;;;;5093750;28;20433;-82
2023/04/14 06:38:57;;;;;;;0.50;0.50;;;9.30;99.90;;;;;;5093351;28;20498;-82
2023/04/14 06:41:24;;;;;;;2.30;0.67;;;9.70;99.90;;;;;;5093553;28;20499;-81
2023/04/14 06:43:51;;;;;;;1.60;0.50;;;10.20;99.90;;;;;;5093556;28;20452;-81
2023/04/14 06:46:18;;;;;;;0.77;0.70;;;10.60;99.90;;;;;;5093042;28;20955;-82
2023/04/14 06:48:45;;;;;;;0.40;0.30;;;10.90;99.90;;;;;;5093611;28;20425;-82
2023/04/14 06:51:13;;;;;;;0.40;0.33;;;11.10;99.90;;;;;;5093478;28;20468;-81
2023/04/14 06:53:40;;;;;;;0.37;0.37;;;11.50;99.90;;;;;;5094076;28;20437;-81
2023/04/14 06:56:08;;;;;;;3.03;0.60;;;12.00;99.90;;;;;;5093241;28;20440;-81
2023/04/14 06:58:34;;;;;;;0.60;0.60;;;12.40;99.90;;;;;;5093486;28;20449;-82
2023/04/14 07:01:02;;;;;;;0.70;0.50;;;12.80;99.90;;;;;;5093378;28;20471;-82
2023/04/14 07:03:30;;;;;;;1.37;0.40;;;13.10;99.90;;;;;;5093066;28;20944;-82
2023/04/14 07:06:02;;;;;;;0.43;0.43;;;13.40;99.90;;;;;;5093318;28;20523;-83
2023/04/14 07:08:31;;;;;;;0.87;0.63;;;13.60;99.90;;;;;;5093506;28;20425;-83
2023/04/14 07:11:00;;;;;;;0.40;0.30;;;14.20;99.90;;;;;;5093319;28;20483;-83
2023/04/14 07:13:27;;;;;;;0.30;0.30;;;14.70;99.90;;;;;;5093473;28;20531;-83
2023/04/14 07:15:54;;;;;;;0.50;0.50;;;14.90;99.90;;;;;;5094363;28;20481;-83
2023/04/14 07:18:20;;;;;;;0.70;0.50;;;15.30;99.90;;;;;;5093456;28;20441;-83
2023/04/14 07:20:49;;;;;;;0.80;0.50;;;15.90;99.90;;;;;;5093712;28;20464;-83
2023/04/14 07:23:15;;;;;;;0.90;0.70;;;16.30;99.50;;;;;;5093416;28;20494;-83
2023/04/14 07:25:43;;;;;;;10.03;1.27;;;16.80;97.80;;;;;;5093205;28;20480;-82
2023/04/14 07:28:10;;;;;;;0.40;0.40;;;17.30;96.20;;;;;;5093215;28;20444;-82
2023/04/14 07:30:37;;;;;;;3.13;0.67;;;17.90;94.50;;;;;;5093102;28;20515;-82
2023/04/14 07:33:04;;;;;;;0.70;0.50;;;19.10;91.70;;;;;;5093198;28;20451;-82
2023/04/14 07:35:31;;;;;;;0.80;0.50;;;20.20;88.50;;;;;;5093128;28;20456;-82
2023/04/14 07:37:57;;;;;;;1.00;0.50;;;21.30;82.40;;;;;;5092825;28;20460;-83
2023/04/14 07:40:24;;;;;;;0.68;0.60;;;22.30;73.60;;;;;;5093062;28;20594;-83
2023/04/14 07:42:52;;;;;;;0.40;0.40;;;23.10;68.00;;;;;;5093108;28;20202;-83
2023/04/14 07:45:19;;;;;;;0.40;0.38;;;24.00;61.20;;;;;;5093029;28;20209;-83
2023/04/14 07:47:45;;;;;;;0.43;0.40;;;24.30;58.10;;;;;;5092682;28;20241;-83
2023/04/14 07:50:12;;;;;;;3.28;0.75;;;24.10;53.60;;;;;;5092984;28;20218;-83
2023/04/14 07:52:39;;;;;;;0.85;0.85;;;23.80;52.80;;;;;;5096606;28;20294;-83
2023/04/14 07:55:06;;;;;;;0.40;0.40;;;23.20;52.40;;;;;;5096769;28;20292;-83
2023/04/14 07:57:34;;;;;;;0.50;0.40;;;22.70;53.30;;;;;;5096469;28;20592;-83
2023/04/14 08:00:04;;;;;;;0.40;0.38;;;22.20;53.20;;;;;;5096575;28;20573;-83
2023/04/14 08:02:31;;;;;;;3.47;0.50;;;22.70;52.60;;;;;;5096553;28;20289;-83
2023/04/14 08:04:58;;;;;;;2.13;0.40;;;23.50;52.40;;;;;;5096460;28;20252;-83
2023/04/14 08:07:27;;;;;;;3.13;0.60;;;24.30;49.90;;;;;;5096468;28;20209;-83
2023/04/14 08:09:54;;;;;;;1.45;0.50;;;24.90;49.20;;;;;;5096712;28;20222;-83
2023/04/14 08:12:20;;;;;;;0.60;0.50;;;25.50;47.60;;;;;;5096411;28;20202;-83
2023/04/14 08:14:47;;;;;;;0.40;0.40;;;25.90;47.30;;;;;;5096353;28;20198;-83
2023/04/14 08:17:15;;;;;;;0.43;0.40;;;25.60;46.90;;;;;;5096295;28;20224;-83
2023/04/14 08:19:42;;;;;;;0.52;0.50;;;25.60;45.40;;;;;;5096138;28;20225;-83
2023/04/14 08:22:09;;;;;;;0.60;0.35;;;25.20;46.30;;;;;;5095989;28;20563;-83
2023/04/14 08:24:36;;;;;;;0.40;0.32;;;24.40;46.70;;;;;;5096005;28;20202;-82
2023/04/14 08:27:02;;;;;;;1.67;0.47;;;23.80;47.00;;;;;;5095843;28;20255;-83
2023/04/14 08:29:29;;;;;;;0.40;0.35;;;23.20;46.80;;;;;;5095958;28;20205;-83
2023/04/14 08:31:56;;;;;;;1.70;0.50;;;22.70;47.70;;;;;;5096435;28;20233;-81
2023/04/14 08:34:24;;;;;;;1.60;0.40;;;21.90;46.90;;;;;;5095990;28;20197;-83
2023/04/14 08:36:51;;;;;;;1.10;0.60;;;21.30;47.40;;;;;;5096472;28;20206;-83
2023/04/14 08:39:17;;;;;;;0.98;0.40;;;20.90;48.60;;;;;;5095512;28;20715;-83
2023/04/14 08:41:44;;;;;;;0.70;0.40;;;20.40;49.00;;;;;;5095878;28;20210;-83
2023/04/14 08:44:11;;;;;;;0.80;0.50;;;20.20;49.80;;;;;;5095502;28;20201;-83
2023/04/14 08:46:38;;;;;;;1.63;0.50;;;20.20;51.60;;;;;;5095834;28;20322;-83
2023/04/14 08:49:07;;;;;;;0.60;0.40;;;20.50;50.50;;;;;;5095367;28;20206;-82
2023/04/14 08:51:38;;;;;;;1.70;0.50;;;21.30;50.20;;;;;;5095611;28;20226;-82
2023/04/14 08:54:08;;;;;;;1.10;0.50;;;22.10;48.70;;;;;;5095659;28;20253;-82
2023/04/14 08:56:38;;;;;;;3.35;0.60;;;22.80;49.30;;;;;;5095296;28;20668;-82
2023/04/14 08:59:06;;;;;;;1.05;0.50;;;23.80;47.90;;;;;;5095247;28;20209;-83
2023/04/14 09:01:33;;;;;;;0.90;0.52;;;24.10;45.80;;;;;;5095149;28;20218;-83
2023/04/14 09:04:02;;;;;;;1.05;0.50;;;24.30;44.60;;;;;;5095444;28;20202;-83
2023/04/14 09:06:29;;;;;;;0.70;0.43;;;23.70;46.10;;;;;;5094988;28;20243;-83
2023/04/14 09:08:58;;;;;;;1.83;0.50;;;23.70;45.40;;;;;;5095337;28;20602;-83
2023/04/14 09:11:26;;;;;;;0.60;0.47;;;24.20;47.10;;;;;;5094896;28;20226;-82
2023/04/14 09:13:55;;;;;;;4.22;0.60;;;25.00;46.40;;;;;;5095474;28;20568;-83
2023/04/14 09:16:25;;;;;;;1.00;0.52;;;25.70;45.80;;;;;;5094851;28;20671;-82
2023/04/14 09:18:52;;;;;;;0.68;0.35;;;26.20;45.40;;;;;;5095141;28;20560;-83
2023/04/14 09:21:19;;;;;;;0.60;0.50;;;25.00;43.70;;;;;;5095030;28;20222;-83
2023/04/14 09:23:46;;;;;;;3.33;0.35;;;23.40;44.00;;;;;;5095081;28;20206;-82
2023/04/14 09:26:15;;;;;;;2.38;0.50;;;21.60;46.20;;;;;;5094972;28;20224;-83
2023/04/14 09:28:41;;;;;;;0.83;0.60;;;21.30;47.20;;;;;;5094932;28;20205;-82
2023/04/14 09:31:09;;;;;;;1.83;0.50;;;20.60;45.50;;;;;;5094814;28;20499;-82
2023/04/14 09:33:39;;;;;;;1.57;0.50;;;19.60;48.30;;;;;;5094831;28;20455;-83
2023/04/14 09:36:06;;;;;;;0.50;0.50;;;19.90;49.00;;;;;;5094792;28;20493;-82
2023/04/14 09:38:35;;;;;;;1.47;0.50;;;20.60;48.60;;;;;;5094740;28;20444;-83
2023/04/14 09:41:03;;;;;;;0.93;0.50;;;21.20;47.60;;;;;;5094286;28;20995;-82
2023/04/14 09:43:31;;;;;;;0.80;0.40;;;21.60;47.30;;;;;;5094676;28;20447;-83
2023/04/14 09:46:03;;;;;;;1.10;0.50;;;22.30;46.60;;;;;;5094518;28;20486;-83
2023/04/14 09:48:30;;;;;;;0.50;0.40;;;23.00;44.40;;;;;;5094072;28;20498;-83
2023/04/14 09:51:02;;;;;;;0.67;0.40;;;23.60;44.10;;;;;;5094447;28;20459;-83
2023/04/14 09:53:30;;;;;;;1.73;0.50;;;23.70;45.20;;;;;;5094200;28;20436;-82
2023/04/14 09:55:58;;;;;;;0.70;0.50;;;24.00;43.20;;;;;;5094541;28;20232;-82
2023/04/14 09:58:31;;;;;;;1.50;0.60;;;24.10;42.20;;;;;;5094610;28;20202;-83
2023/04/14 10:00:59;;;;;;;1.67;0.75;;;24.00;43.20;;;;;;5094460;28;20313;-82
2023/04/14 10:03:33;;;;;;;0.93;0.60;;;24.40;42.50;;;;;;5096034;28;20229;-82
2023/04/14 10:06:00;;;;;;;1.38;0.43;;;24.30;41.90;;;;;;5094182;28;20273;-83
2023/04/14 10:08:35;;;;;;;2.10;0.57;;;24.00;42.80;;;;;;5094174;28;20443;-83
2023/04/14 10:11:17;;;;;;;1.33;0.50;;;23.80;43.00;;;;;;5094125;28;20249;-82
2023/04/14 10:13:46;;;;;;;0.50;0.40;;;23.60;41.90;;;;;;5094135;28;20188;-83
2023/04/14 10:16:13;;;;;;;1.13;0.40;;;23.20;41.00;;;;;;5094087;28;20198;-82
2023/04/14 10:18:40;;;;;;;0.40;0.40;;;22.70;43.10;;;;;;5094026;28;20586;-83
2023/04/14 10:21:08;;;;;;;0.47;0.47;;;22.60;43.80;;;;;;5093875;28;20221;-83
2023/04/14 10:23:37;;;;;;;0.83;0.40;;;22.10;43.30;;;;;;5093916;28;20205;-83
2023/04/14 10:26:05;;;;;;;0.40;0.40;;;21.90;43.80;;;;;;5093807;28;20253;-82
2023/04/14 10:28:33;;;;;;;1.73;0.50;;;22.20;43.90;;;;;;5093473;28;20481;-82
2023/04/14 10:31:02;;;;;;;1.93;0.50;;;22.60;45.00;;;;;;5094555;28;20466;-83
2023/04/14 10:33:29;;;;;;;1.58;0.43;;;22.90;44.50;;;;;;5093784;28;20205;-83
2023/04/14 10:35:59;;;;;;;0.43;0.40;;;23.40;41.60;;;;;;5093795;28;20231;-83
2023/04/14 10:38:38;;;;;;;0.60;0.40;;;23.70;42.40;;;;;;5093711;28;20213;-83
2023/04/14 10:41:05;;;;;;;1.67;0.40;;;23.60;42.40;;;;;;5093700;28;20260;-83
2023/04/14 10:43:33;;;;;;;1.58;0.43;;;24.00;41.90;;;;;;5093648;28;20205;-83
2023/04/14 10:46:02;;;;;;;0.70;0.30;;;24.90;41.00;;;;;;5093586;28;20211;-83
2023/04/14 10:48:33;;;;;;;0.40;0.40;;;25.60;43.00;;;;;;5093133;28;20230;-81
2023/04/14 10:51:02;;;;;;;2.28;0.50;;;26.20;40.30;;;;;;5093532;28;20218;-79
2023/04/14 10:53:37;;;;;;;1.02;0.55;;;26.50;40.60;;;;;;5093528;28;20210;-81
2023/04/14 10:56:05;;;;;;;0.70;0.50;;;26.70;38.80;;;;;;5093541;28;20213;-81
2023/04/14 10:58:35;;;;;;;0.50;0.40;;;26.30;39.20;;;;;;5093438;28;20205;-81
2023/04/14 11:01:22;;;;;;;0.80;0.50;;;24.80;39.80;;;;;;5093367;28;20256;-81
2023/04/14 11:03:50;;;;;;;1.33;0.50;;;22.80;40.90;;;;;;5093411;28;20187;-81
2023/04/14 11:06:51;;;;;;;0.80;0.43;;;21.30;44.30;;;;;;5093356;28;20230;-81
2023/04/14 11:09:33;;;;;;;0.70;0.47;;;19.80;44.10;;;;;;5093360;28;20193;-82
2023/04/14 11:12:05;;;;;;;0.53;0.50;;;18.60;46.40;;;;;;5093448;28;20470;-81
2023/04/14 11:14:34;;;;;;;0.40;0.33;;;17.70;46.70;;;;;;5093039;28;20928;-81
2023/04/14 11:17:04;;;;;;;1.27;0.40;;;17.00;48.80;;;;;;5093332;28;20440;-81
2023/04/14 11:19:32;;;;;;;0.70;0.60;;;16.70;49.80;;;;;;5093218;28;20472;-82
2023/04/14 11:21:58;;;;;;;0.40;0.40;;;16.50;50.40;;;;;;5093322;28;20501;-81
2023/04/14 11:24:26;;;;;;;1.27;0.40;;;16.40;51.00;;;;;;5093677;28;20452;-81
2023/04/14 11:26:54;;;;;;;0.50;0.40;;;16.60;49.00;;;;;;5096980;28;21036;-81
2023/04/14 11:29:21;;;;;;;0.60;0.47;;;16.90;50.20;;;;;;5097159;28;20448;-81
2023/04/14 11:31:59;;;;;;;0.47;0.40;;;17.00;51.30;;;;;;5097286;28;20452;-81
2023/04/14 11:34:28;;;;;;;0.73;0.43;;;17.20;50.00;;;;;;5097198;28;20858;-83
2023/04/14 11:36:55;;;;;;;0.40;0.40;;;17.40;48.90;;;;;;5097130;28;20479;-81
2023/04/14 11:39:22;;;;;;;0.30;0.30;;;17.40;46.80;;;;;;5096999;28;20490;-83
2023/04/14 11:41:50;;;;;;;0.40;0.40;;;17.20;49.30;;;;;;5097113;28;20464;-83
2023/04/14 11:44:18;;;;;;;0.40;0.40;;;17.00;46.60;;;;;;5096997;28;20816;-83
2023/04/14 11:46:44;;;;;;;1.03;0.40;;;16.70;47.90;;;;;;5096589;28;20496;-84
2023/04/14 11:49:11;;;;;;;0.47;0.40;;;16.40;48.10;;;;;;5096598;28;20436;-84
2023/04/14 11:51:39;;;;;;;1.10;0.60;;;16.30;48.90;;;;;;5096455;28;20974;-83
2023/04/14 11:54:06;;;;;;;0.50;0.40;;;16.20;50.60;;;;;;5096451;28;20940;-83
2023/04/14 11:56:33;;;;;;;0.70;0.40;;;16.10;51.70;;;;;;5096723;28;20440;-83
2023/04/14 11:59:00;;;;;;;0.40;0.37;;;16.10;50.80;;;;;;5096682;28;20448;-84
2023/04/14 12:01:28;;;;;;;1.17;0.40;;;16.20;51.10;;;;;;5096457;28;20504;-83
2023/04/14 12:03:55;;;;;;;0.53;0.40;;;16.40;49.60;;;;;;5096221;28;20448;-83
2023/04/14 12:06:22;;;;;;;0.60;0.40;;;16.40;51.90;;;;;;5096425;28;20520;-83
2023/04/14 12:08:53;;;;;;;0.50;0.30;;;16.30;50.60;;;;;;5096470;28;20456;-83
2023/04/14 12:11:20;;;;;;;1.57;0.30;;;16.40;50.30;;;;;;5096359;28;20469;-83
2023/04/14 12:13:47;;;;;;;5.83;0.47;;;16.40;50.60;;;;;;5096468;28;20433;-83
2023/04/14 12:16:16;;;;;;;1.17;0.40;;;16.70;51.40;;;;;;5096332;28;20441;-84
2023/04/14 12:18:43;;;;;;;0.50;0.40;;;16.60;51.60;;;;;;5095922;28;20990;-84
2023/04/14 12:21:10;;;;;;;0.60;0.40;;;16.70;49.20;;;;;;5096156;28;20464;-83
2023/04/14 12:23:37;;;;;;;0.50;0.50;;;16.80;51.20;;;;;;5096316;28;20440;-81
2023/04/14 12:26:11;;;;;;;0.40;0.40;;;16.70;50.50;;;;;;5098121;28;20872;-83
2023/04/14 12:28:40;;;;;;;0.50;0.30;;;16.60;50.60;;;;;;5100913;28;20468;-83
2023/04/14 12:31:07;;;;;;;4.70;0.50;;;16.60;50.20;;;;;;5097882;28;20465;-83
2023/04/14 12:33:34;;;;;;;1.50;0.40;;;16.50;50.60;;;;;;5096133;28;20455;-83
2023/04/14 12:36:03;;;;;;;0.73;0.40;;;16.40;50.80;;;;;;5095473;28;20932;-83
2023/04/14 12:38:30;;;;;;;3.60;0.50;;;16.30;51.40;;;;;;5095774;28;20460;-84
2023/04/14 12:40:57;;;;;;;0.50;0.30;;;16.10;51.40;;;;;;5095507;28;20471;-83
2023/04/14 12:43:30;;;;;;;0.97;0.37;;;15.90;51.40;;;;;;5095857;28;20452;-84
2023/04/14 12:45:58;;;;;;;2.40;0.90;;;15.70;52.50;;;;;;5096026;28;20437;-84
2023/04/14 12:48:43;;;;;;;1.23;0.40;;;15.50;51.90;;;;;;5095244;28;20547;-84
2023/04/14 12:51:11;;;;;;;0.40;0.40;;;15.30;52.10;;;;;;5095338;28;20970;-83
2023/04/14 12:53:38;;;;;;;0.50;0.40;;;15.10;52.00;;;;;;5095649;28;20535;-83
2023/04/14 12:56:09;;;;;;;0.57;0.57;;;15.00;52.50;;;;;;5095375;28;20433;-83
2023/04/14 12:58:38;;;;;;;0.40;0.33;;;14.80;52.30;;;;;;5095364;28;20424;-83
2023/04/14 13:01:06;;;;;;;0.40;0.40;;;14.70;51.80;;;;;;5095476;28;20464;-83